sensor_id;sensor_type;location;lat;lon;timestamp;temperature;humidity
8910;DHT22;4490;49.072;8.804;2023-07-28T00:02:04;19.30;99.90
8910;DHT22;4490;49.072;8.804;2023-07-28T00:04:30;19.30;99.90
8910;DHT22;4490;49.072;8.804;2023-07-28T00:06:55;19.30;99.90
8910;DHT22;4490;49.072;8.804;2023-07-28T00:09:21;19.30;99.90
8910;DHT22;4490;49.072;8.804;2023-07-28T00:11:48;19.30;99.90
8910;DHT22;4490;49.072;8.804;2023-07-28T00:14:14;19.30;99.90
8910;DHT22;4490;49.072;8.804;2023-07-28T00:16:40;19.30;99.90
8910;DHT22;4490;49.072;8.804;2023-07-28T00:19:05;19.30;99.90
8910;DHT22;4490;49.072;8.804;2023-07-28T00:21:31;19.30;99.90
8910;DHT22;4490;49.072;8.804;2023-07-28T00:23:57;19.30;99.90
8910;DHT22;4490;49.072;8.804;2023-07-28T00:26:22;19.30;99.90
8910;DHT22;4490;49.072;8.804;2023-07-28T00:28:48;19.30;99.90
8910;DHT22;4490;49.072;8.804;2023-07-28T00:31:14;19.20;99.90
8910;DHT22;4490;49.072;8.804;2023-07-28T00:33:39;19.20;99.90
8910;DHT22;4490;49.072;8.804;2023-07-28T00:36:05;19.30;99.90
8910;DHT22;4490;49.072;8.804;2023-07-28T00:38:30;19.30;99.90
8910;DHT22;4490;49.072;8.804;2023-07-28T00:40:56;19.20;99.90
8910;DHT22;4490;49.072;8.804;2023-07-28T00:43:21;19.20;99.90
8910;DHT22;4490;49.072;8.804;2023-07-28T00:45:48;19.20;99.90
8910;DHT22;4490;49.072;8.804;2023-07-28T00:48:15;19.20;99.90
8910;DHT22;4490;49.072;8.804;2023-07-28T00:50:45;19.20;99.90
8910;DHT22;4490;49.072;8.804;2023-07-28T00:53:10;19.20;99.90
8910;DHT22;4490;49.072;8.804;2023-07-28T00:55:37;19.20;99.90
8910;DHT22;4490;49.072;8.804;2023-07-28T00:58:03;19.20;99.90
8910;DHT22;4490;49.072;8.804;2023-07-28T01:00:29;19.20;99.90
8910;DHT22;4490;49.072;8.804;2023-07-28T01:02:55;19.20;99.90
8910;DHT22;4490;49.072;8.804;2023-07-28T01:05:26;19.20;99.90
8910;DHT22;4490;49.072;8.804;2023-07-28T01:07:59;19.20;99.90
8910;DHT22;4490;49.072;8.804;2023-07-28T01:10:31;19.10;99.90
8910;DHT22;4490;49.072;8.804;2023-07-28T01:12:57;19.10;99.90
8910;DHT22;4490;49.072;8.804;2023-07-28T01:15:23;19.10;99.90
8910;DHT22;4490;49.072;8.804;2023-07-28T01:17:49;19.00;99.90
8910;DHT22;4490;49.072;8.804;2023-07-28T01:20:15;19.00;99.90
8910;DHT22;4490;49.072;8.804;2023-07-28T01:23:05;19.00;99.90
8910;DHT22;4490;49.072;8.804;2023-07-28T01:28:03;19.00;99.90
8910;DHT22;4490;49.072;8.804;2023-07-28T01:30:29;18.90;99.90
8910;DHT22;4490;49.072;8.804;2023-07-28T01:32:56;18.90;99.90
8910;DHT22;4490;49.072;8.804;2023-07-28T01:35:22;18.90;99.90
8910;DHT22;4490;49.072;8.804;2023-07-28T01:37:48;18.90;99.90
8910;DHT22;4490;49.072;8.804;2023-07-28T01:40:17;18.90;99.90
8910;DHT22;4490;49.072;8.804;2023-07-28T01:42:43;18.90;99.90
8910;DHT22;4490;49.072;8.804;2023-07-28T01:45:09;18.90;99.90
8910;DHT22;4490;49.072;8.804;2023-07-28T01:47:34;18.80;99.90
8910;DHT22;4490;49.072;8.804;2023-07-28T01:50:00;18.80;99.90
8910;DHT22;4490;49.072;8.804;2023-07-28T01:52:25;18.80;99.90
8910;DHT22;4490;49.072;8.804;2023-07-28T01:54:51;18.80;99.90
8910;DHT22;4490;49.072;8.804;2023-07-28T01:57:17;18.80;99.90
8910;DHT22;4490;49.072;8.804;2023-07-28T01:59:43;18.80;99.90
8910;DHT22;4490;49.072;8.804;2023-07-28T02:02:08;18.80;99.90
8910;DHT22;4490;49.072;8.804;2023-07-28T02:04:34;18.80;99.90
8910;DHT22;4490;49.072;8.804;2023-07-28T02:07:00;18.80;99.90
8910;DHT22;4490;49.072;8.804;2023-07-28T02:09:25;18.80;99.90
8910;DHT22;4490;49.072;8.804;2023-07-28T02:11:52;18.80;99.90
8910;DHT22;4490;49.072;8.804;2023-07-28T02:14:17;18.80;99.90
8910;DHT22;4490;49.072;8.804;2023-07-28T02:16:43;18.80;99.90
8910;DHT22;4490;49.072;8.804;2023-07-28T02:19:09;18.80;99.90
8910;DHT22;4490;49.072;8.804;2023-07-28T02:21:34;18.80;99.90
8910;DHT22;4490;49.072;8.804;2023-07-28T02:24:00;18.80;99.90
8910;DHT22;4490;49.072;8.804;2023-07-28T02:26:26;18.80;99.90
8910;DHT22;4490;49.072;8.804;2023-07-28T02:28:51;18.80;99.90
8910;DHT22;4490;49.072;8.804;2023-07-28T02:31:17;18.80;99.90
8910;DHT22;4490;49.072;8.804;2023-07-28T02:33:42;18.80;99.90
8910;DHT22;4490;49.072;8.804;2023-07-28T02:36:08;18.80;99.90
8910;DHT22;4490;49.072;8.804;2023-07-28T02:38:33;18.70;99.90
8910;DHT22;4490;49.072;8.804;2023-07-28T02:40:59;18.70;99.90
8910;DHT22;4490;49.072;8.804;2023-07-28T02:43:25;18.70;99.90
8910;DHT22;4490;49.072;8.804;2023-07-28T02:45:54;18.70;99.90
8910;DHT22;4490;49.072;8.804;2023-07-28T02:48:20;18.70;99.90
8910;DHT22;4490;49.072;8.804;2023-07-28T02:50:52;18.70;99.90
8910;DHT22;4490;49.072;8.804;2023-07-28T02:53:18;18.70;99.90
8910;DHT22;4490;49.072;8.804;2023-07-28T02:55:44;18.70;99.90
8910;DHT22;4490;49.072;8.804;2023-07-28T02:58:10;18.70;99.90
8910;DHT22;4490;49.072;8.804;2023-07-28T03:00:40;18.70;99.90
8910;DHT22;4490;49.072;8.804;2023-07-28T03:03:08;18.70;99.90
8910;DHT22;4490;49.072;8.804;2023-07-28T03:05:39;18.60;99.90
8910;DHT22;4490;49.072;8.804;2023-07-28T03:08:05;18.60;99.90
8910;DHT22;4490;49.072;8.804;2023-07-28T03:10:31;18.60;99.90
8910;DHT22;4490;49.072;8.804;2023-07-28T03:12:57;18.60;99.90
8910;DHT22;4490;49.072;8.804;2023-07-28T03:15:23;18.70;99.90
8910;DHT22;4490;49.072;8.804;2023-07-28T03:17:49;18.70;99.90
8910;DHT22;4490;49.072;8.804;2023-07-28T03:20:15;18.60;99.90
8910;DHT22;4490;49.072;8.804;2023-07-28T03:22:41;18.60;99.90
8910;DHT22;4490;49.072;8.804;2023-07-28T03:25:06;18.60;99.90
8910;DHT22;4490;49.072;8.804;2023-07-28T03:27:32;18.60;99.90
8910;DHT22;4490;49.072;8.804;2023-07-28T03:29:58;18.60;99.90
8910;DHT22;4490;49.072;8.804;2023-07-28T03:32:23;18.60;99.90
8910;DHT22;4490;49.072;8.804;2023-07-28T03:34:49;18.60;99.90
8910;DHT22;4490;49.072;8.804;2023-07-28T03:37:15;18.60;99.90
8910;DHT22;4490;49.072;8.804;2023-07-28T03:39:40;18.60;99.90
8910;DHT22;4490;49.072;8.804;2023-07-28T03:42:07;18.60;99.90
8910;DHT22;4490;49.072;8.804;2023-07-28T03:44:32;18.70;99.90
8910;DHT22;4490;49.072;8.804;2023-07-28T03:46:59;18.70;99.90
8910;DHT22;4490;49.072;8.804;2023-07-28T03:49:25;18.70;99.90
8910;DHT22;4490;49.072;8.804;2023-07-28T03:51:50;18.70;99.90
8910;DHT22;4490;49.072;8.804;2023-07-28T03:54:16;18.70;99.90
8910;DHT22;4490;49.072;8.804;2023-07-28T03:56:41;18.70;99.90
8910;DHT22;4490;49.072;8.804;2023-07-28T03:59:07;18.70;99.90
8910;DHT22;4490;49.072;8.804;2023-07-28T04:01:32;18.70;99.90
8910;DHT22;4490;49.072;8.804;2023-07-28T04:03:58;18.70;99.90
8910;DHT22;4490;49.072;8.804;2023-07-28T04:06:48;18.80;99.90
8910;DHT22;4490;49.072;8.804;2023-07-28T04:09:19;18.80;99.90
8910;DHT22;4490;49.072;8.804;2023-07-28T04:11:44;18.80;99.90
8910;DHT22;4490;49.072;8.804;2023-07-28T04:14:10;18.80;99.90
8910;DHT22;4490;49.072;8.804;2023-07-28T04:16:36;18.80;99.90
8910;DHT22;4490;49.072;8.804;2023-07-28T04:19:01;18.80;99.90
8910;DHT22;4490;49.072;8.804;2023-07-28T04:21:27;18.80;99.90
8910;DHT22;4490;49.072;8.804;2023-07-28T04:23:53;18.80;99.90
8910;DHT22;4490;49.072;8.804;2023-07-28T04:26:18;18.80;99.90
8910;DHT22;4490;49.072;8.804;2023-07-28T04:28:44;18.80;99.90
8910;DHT22;4490;49.072;8.804;2023-07-28T04:31:11;18.80;99.90
8910;DHT22;4490;49.072;8.804;2023-07-28T04:33:36;18.80;99.90
8910;DHT22;4490;49.072;8.804;2023-07-28T04:36:04;18.80;99.90
8910;DHT22;4490;49.072;8.804;2023-07-28T04:38:29;18.80;99.90
8910;DHT22;4490;49.072;8.804;2023-07-28T04:40:55;18.80;99.90
8910;DHT22;4490;49.072;8.804;2023-07-28T04:43:21;18.80;99.90
8910;DHT22;4490;49.072;8.804;2023-07-28T04:45:46;18.80;99.90
8910;DHT22;4490;49.072;8.804;2023-07-28T04:48:12;18.90;99.90
8910;DHT22;4490;49.072;8.804;2023-07-28T04:50:37;18.90;99.90
8910;DHT22;4490;49.072;8.804;2023-07-28T04:53:03;18.90;99.90
8910;DHT22;4490;49.072;8.804;2023-07-28T04:55:29;18.90;99.90
8910;DHT22;4490;49.072;8.804;2023-07-28T04:57:56;18.90;99.90
8910;DHT22;4490;49.072;8.804;2023-07-28T05:00:22;18.90;99.90
8910;DHT22;4490;49.072;8.804;2023-07-28T05:02:48;18.90;99.90
8910;DHT22;4490;49.072;8.804;2023-07-28T05:05:14;19.00;99.90
8910;DHT22;4490;49.072;8.804;2023-07-28T05:07:39;19.00;99.90
8910;DHT22;4490;49.072;8.804;2023-07-28T05:10:05;19.00;99.90
8910;DHT22;4490;49.072;8.804;2023-07-28T05:12:31;19.00;99.90
8910;DHT22;4490;49.072;8.804;2023-07-28T05:14:56;19.00;99.90
8910;DHT22;4490;49.072;8.804;2023-07-28T05:17:22;19.00;99.90
8910;DHT22;4490;49.072;8.804;2023-07-28T05:19:49;19.00;99.90
8910;DHT22;4490;49.072;8.804;2023-07-28T05:22:15;19.00;99.90
8910;DHT22;4490;49.072;8.804;2023-07-28T05:24:40;19.00;99.90
8910;DHT22;4490;49.072;8.804;2023-07-28T05:27:06;19.00;99.90
8910;DHT22;4490;49.072;8.804;2023-07-28T05:29:32;19.00;99.90
8910;DHT22;4490;49.072;8.804;2023-07-28T05:32:00;19.00;99.90
8910;DHT22;4490;49.072;8.804;2023-07-28T05:34:26;19.00;99.90
8910;DHT22;4490;49.072;8.804;2023-07-28T05:36:51;19.00;99.90
8910;DHT22;4490;49.072;8.804;2023-07-28T05:39:17;19.00;99.90
8910;DHT22;4490;49.072;8.804;2023-07-28T05:41:42;19.00;99.90
8910;DHT22;4490;49.072;8.804;2023-07-28T05:44:08;19.00;99.90
8910;DHT22;4490;49.072;8.804;2023-07-28T05:46:34;19.00;99.90
8910;DHT22;4490;49.072;8.804;2023-07-28T05:48:59;19.00;99.90
8910;DHT22;4490;49.072;8.804;2023-07-28T05:51:25;19.00;99.90
8910;DHT22;4490;49.072;8.804;2023-07-28T05:53:51;19.00;99.90
8910;DHT22;4490;49.072;8.804;2023-07-28T05:56:17;19.00;99.90
8910;DHT22;4490;49.072;8.804;2023-07-28T05:58:45;19.00;99.90
8910;DHT22;4490;49.072;8.804;2023-07-28T06:01:11;19.00;99.90
8910;DHT22;4490;49.072;8.804;2023-07-28T06:03:36;19.00;99.90
8910;DHT22;4490;49.072;8.804;2023-07-28T06:06:02;19.10;99.90
8910;DHT22;4490;49.072;8.804;2023-07-28T06:08:28;19.10;99.90
8910;DHT22;4490;49.072;8.804;2023-07-28T06:10:54;19.10;99.90
8910;DHT22;4490;49.072;8.804;2023-07-28T06:13:20;19.10;99.90
8910;DHT22;4490;49.072;8.804;2023-07-28T06:15:46;19.10;99.90
8910;DHT22;4490;49.072;8.804;2023-07-28T06:18:12;19.10;99.90
8910;DHT22;4490;49.072;8.804;2023-07-28T06:20:37;19.00;99.90
8910;DHT22;4490;49.072;8.804;2023-07-28T06:23:03;19.00;99.90
8910;DHT22;4490;49.072;8.804;2023-07-28T06:25:28;19.00;99.90
8910;DHT22;4490;49.072;8.804;2023-07-28T06:27:54;19.00;99.90
8910;DHT22;4490;49.072;8.804;2023-07-28T06:30:20;19.00;99.90
8910;DHT22;4490;49.072;8.804;2023-07-28T06:32:46;19.00;99.90
8910;DHT22;4490;49.072;8.804;2023-07-28T06:35:11;18.90;99.90
8910;DHT22;4490;49.072;8.804;2023-07-28T06:37:37;18.90;99.90
8910;DHT22;4490;49.072;8.804;2023-07-28T06:40:06;18.90;99.90
8910;DHT22;4490;49.072;8.804;2023-07-28T06:42:34;18.90;99.90
8910;DHT22;4490;49.072;8.804;2023-07-28T06:45:00;18.90;99.90
8910;DHT22;4490;49.072;8.804;2023-07-28T06:47:26;18.90;99.90
8910;DHT22;4490;49.072;8.804;2023-07-28T06:49:52;18.90;99.90
8910;DHT22;4490;49.072;8.804;2023-07-28T06:52:18;18.90;99.90
8910;DHT22;4490;49.072;8.804;2023-07-28T06:54:43;18.90;99.90
8910;DHT22;4490;49.072;8.804;2023-07-28T06:57:09;18.90;99.90
8910;DHT22;4490;49.072;8.804;2023-07-28T06:59:34;18.90;99.90
8910;DHT22;4490;49.072;8.804;2023-07-28T07:02:00;18.90;99.90
8910;DHT22;4490;49.072;8.804;2023-07-28T07:04:25;18.90;99.90
8910;DHT22;4490;49.072;8.804;2023-07-28T07:06:51;18.90;99.90
8910;DHT22;4490;49.072;8.804;2023-07-28T07:09:17;18.90;99.90
8910;DHT22;4490;49.072;8.804;2023-07-28T07:11:42;18.90;99.90
8910;DHT22;4490;49.072;8.804;2023-07-28T07:14:08;18.90;99.90
8910;DHT22;4490;49.072;8.804;2023-07-28T07:16:34;18.90;99.90
8910;DHT22;4490;49.072;8.804;2023-07-28T07:19:00;19.00;99.90
8910;DHT22;4490;49.072;8.804;2023-07-28T07:21:27;19.00;99.90
8910;DHT22;4490;49.072;8.804;2023-07-28T07:23:53;19.00;99.90
8910;DHT22;4490;49.072;8.804;2023-07-28T07:26:18;19.00;99.90
8910;DHT22;4490;49.072;8.804;2023-07-28T07:28:44;19.00;99.90
8910;DHT22;4490;49.072;8.804;2023-07-28T07:31:13;19.00;99.90
8910;DHT22;4490;49.072;8.804;2023-07-28T07:33:40;19.10;99.90
8910;DHT22;4490;49.072;8.804;2023-07-28T07:36:05;19.10;99.90
8910;DHT22;4490;49.072;8.804;2023-07-28T07:38:31;19.10;99.90
8910;DHT22;4490;49.072;8.804;2023-07-28T07:40:56;19.10;99.90
8910;DHT22;4490;49.072;8.804;2023-07-28T07:43:22;19.10;99.90
8910;DHT22;4490;49.072;8.804;2023-07-28T07:45:48;19.10;99.90
8910;DHT22;4490;49.072;8.804;2023-07-28T07:48:15;19.20;99.90
8910;DHT22;4490;49.072;8.804;2023-07-28T07:50:41;19.20;99.90
8910;DHT22;4490;49.072;8.804;2023-07-28T07:53:07;19.20;99.90
8910;DHT22;4490;49.072;8.804;2023-07-28T07:55:32;19.30;99.90
8910;DHT22;4490;49.072;8.804;2023-07-28T07:57:58;19.30;99.90
8910;DHT22;4490;49.072;8.804;2023-07-28T08:00:23;19.30;99.90
8910;DHT22;4490;49.072;8.804;2023-07-28T08:02:49;19.40;99.90
8910;DHT22;4490;49.072;8.804;2023-07-28T08:05:15;19.40;99.90
8910;DHT22;4490;49.072;8.804;2023-07-28T08:07:41;19.50;99.90
8910;DHT22;4490;49.072;8.804;2023-07-28T08:10:08;19.60;99.90
8910;DHT22;4490;49.072;8.804;2023-07-28T08:12:33;19.60;99.90
8910;DHT22;4490;49.072;8.804;2023-07-28T08:14:59;19.60;99.90
8910;DHT22;4490;49.072;8.804;2023-07-28T08:17:25;19.70;99.90
8910;DHT22;4490;49.072;8.804;2023-07-28T08:19:51;19.80;99.90
8910;DHT22;4490;49.072;8.804;2023-07-28T08:22:16;19.80;99.90
8910;DHT22;4490;49.072;8.804;2023-07-28T08:24:42;19.90;99.90
8910;DHT22;4490;49.072;8.804;2023-07-28T08:27:07;20.00;99.90
8910;DHT22;4490;49.072;8.804;2023-07-28T08:29:33;20.00;99.90
8910;DHT22;4490;49.072;8.804;2023-07-28T08:31:59;20.00;99.90
8910;DHT22;4490;49.072;8.804;2023-07-28T08:34:24;20.10;99.90
8910;DHT22;4490;49.072;8.804;2023-07-28T08:36:50;20.20;99.90
8910;DHT22;4490;49.072;8.804;2023-07-28T08:39:17;20.20;99.90
8910;DHT22;4490;49.072;8.804;2023-07-28T08:41:42;20.30;99.90
8910;DHT22;4490;49.072;8.804;2023-07-28T08:44:08;20.30;99.90
8910;DHT22;4490;49.072;8.804;2023-07-28T08:46:34;20.40;99.90
8910;DHT22;4490;49.072;8.804;2023-07-28T08:49:01;20.50;99.90
8910;DHT22;4490;49.072;8.804;2023-07-28T08:51:26;20.60;99.90
8910;DHT22;4490;49.072;8.804;2023-07-28T08:53:52;20.70;99.90
8910;DHT22;4490;49.072;8.804;2023-07-28T08:56:18;20.80;99.90
8910;DHT22;4490;49.072;8.804;2023-07-28T08:58:44;21.00;99.90
8910;DHT22;4490;49.072;8.804;2023-07-28T09:01:10;21.20;99.90
8910;DHT22;4490;49.072;8.804;2023-07-28T09:03:39;21.40;99.90
8910;DHT22;4490;49.072;8.804;2023-07-28T09:06:07;21.50;99.90
8910;DHT22;4490;49.072;8.804;2023-07-28T09:08:36;21.60;99.90
8910;DHT22;4490;49.072;8.804;2023-07-28T09:11:04;21.60;99.90
8910;DHT22;4490;49.072;8.804;2023-07-28T09:13:39;21.60;99.90
8910;DHT22;4490;49.072;8.804;2023-07-28T09:16:19;21.70;99.90
8910;DHT22;4490;49.072;8.804;2023-07-28T09:18:45;21.70;99.90
8910;DHT22;4490;49.072;8.804;2023-07-28T09:21:20;21.70;99.90
8910;DHT22;4490;49.072;8.804;2023-07-28T09:23:47;21.70;99.90
8910;DHT22;4490;49.072;8.804;2023-07-28T09:26:14;21.70;99.90
8910;DHT22;4490;49.072;8.804;2023-07-28T09:28:40;21.70;99.90
8910;DHT22;4490;49.072;8.804;2023-07-28T09:31:07;21.70;99.90
8910;DHT22;4490;49.072;8.804;2023-07-28T09:33:34;21.80;99.90
8910;DHT22;4490;49.072;8.804;2023-07-28T09:36:26;21.80;99.90
8910;DHT22;4490;49.072;8.804;2023-07-28T09:38:53;21.80;99.90
8910;DHT22;4490;49.072;8.804;2023-07-28T09:41:20;21.90;99.90
8910;DHT22;4490;49.072;8.804;2023-07-28T09:43:46;22.00;99.90
8910;DHT22;4490;49.072;8.804;2023-07-28T09:46:17;22.10;99.90
8910;DHT22;4490;49.072;8.804;2023-07-28T09:48:45;22.20;99.90
8910;DHT22;4490;49.072;8.804;2023-07-28T09:51:17;22.20;99.90
8910;DHT22;4490;49.072;8.804;2023-07-28T09:53:49;22.30;99.90
8910;DHT22;4490;49.072;8.804;2023-07-28T09:56:19;22.50;99.90
8910;DHT22;4490;49.072;8.804;2023-07-28T09:58:52;22.60;99.90
8910;DHT22;4490;49.072;8.804;2023-07-28T10:01:20;22.70;99.90
8910;DHT22;4490;49.072;8.804;2023-07-28T10:03:50;22.70;99.90
8910;DHT22;4490;49.072;8.804;2023-07-28T10:06:20;22.70;99.90
8910;DHT22;4490;49.072;8.804;2023-07-28T10:08:50;22.70;99.90
8910;DHT22;4490;49.072;8.804;2023-07-28T10:11:21;22.70;99.90
8910;DHT22;4490;49.072;8.804;2023-07-28T10:13:47;22.70;99.90
8910;DHT22;4490;49.072;8.804;2023-07-28T10:16:16;22.70;99.90
8910;DHT22;4490;49.072;8.804;2023-07-28T10:18:53;22.70;99.90
8910;DHT22;4490;49.072;8.804;2023-07-28T10:21:19;22.70;99.90
8910;DHT22;4490;49.072;8.804;2023-07-28T10:23:45;22.70;99.90
8910;DHT22;4490;49.072;8.804;2023-07-28T10:26:31;22.60;99.90
8910;DHT22;4490;49.072;8.804;2023-07-28T10:29:11;22.60;99.90
8910;DHT22;4490;49.072;8.804;2023-07-28T10:31:52;22.50;99.90
8910;DHT22;4490;49.072;8.804;2023-07-28T10:34:19;22.40;99.90
8910;DHT22;4490;49.072;8.804;2023-07-28T10:36:47;22.30;99.90
8910;DHT22;4490;49.072;8.804;2023-07-28T10:39:21;22.30;99.90
8910;DHT22;4490;49.072;8.804;2023-07-28T10:42:07;22.20;99.90
8910;DHT22;4490;49.072;8.804;2023-07-28T10:44:34;22.20;99.90
8910;DHT22;4490;49.072;8.804;2023-07-28T10:47:00;22.10;99.90
8910;DHT22;4490;49.072;8.804;2023-07-28T10:49:28;22.00;99.90
8910;DHT22;4490;49.072;8.804;2023-07-28T10:51:55;22.00;99.90
8910;DHT22;4490;49.072;8.804;2023-07-28T10:54:21;22.00;99.90
8910;DHT22;4490;49.072;8.804;2023-07-28T10:56:47;22.10;99.90
8910;DHT22;4490;49.072;8.804;2023-07-28T10:59:14;22.10;99.90
8910;DHT22;4490;49.072;8.804;2023-07-28T11:01:41;22.20;99.90
8910;DHT22;4490;49.072;8.804;2023-07-28T11:06:38;22.20;99.90
8910;DHT22;4490;49.072;8.804;2023-07-28T11:09:07;22.20;99.90
8910;DHT22;4490;49.072;8.804;2023-07-28T11:11:38;22.20;99.90
8910;DHT22;4490;49.072;8.804;2023-07-28T11:14:05;22.30;99.90
8910;DHT22;4490;49.072;8.804;2023-07-28T11:16:34;22.30;99.90
8910;DHT22;4490;49.072;8.804;2023-07-28T11:19:01;22.30;99.90
8910;DHT22;4490;49.072;8.804;2023-07-28T11:21:27;22.30;99.90
8910;DHT22;4490;49.072;8.804;2023-07-28T11:23:53;22.40;99.90
8910;DHT22;4490;49.072;8.804;2023-07-28T11:26:22;22.40;99.90
8910;DHT22;4490;49.072;8.804;2023-07-28T11:28:48;22.50;99.90
8910;DHT22;4490;49.072;8.804;2023-07-28T11:31:14;22.60;99.90
8910;DHT22;4490;49.072;8.804;2023-07-28T11:33:40;22.70;99.90
8910;DHT22;4490;49.072;8.804;2023-07-28T11:36:06;22.80;99.90
8910;DHT22;4490;49.072;8.804;2023-07-28T11:38:33;23.00;99.90
8910;DHT22;4490;49.072;8.804;2023-07-28T11:40:59;23.10;99.90
8910;DHT22;4490;49.072;8.804;2023-07-28T11:43:25;23.10;99.90
8910;DHT22;4490;49.072;8.804;2023-07-28T11:45:51;23.20;99.90
8910;DHT22;4490;49.072;8.804;2023-07-28T11:48:17;23.20;99.90
8910;DHT22;4490;49.072;8.804;2023-07-28T11:50:43;23.20;99.90
8910;DHT22;4490;49.072;8.804;2023-07-28T11:53:10;23.10;99.90
8910;DHT22;4490;49.072;8.804;2023-07-28T11:55:39;23.10;99.90
8910;DHT22;4490;49.072;8.804;2023-07-28T11:58:06;23.10;99.90
8910;DHT22;4490;49.072;8.804;2023-07-28T12:00:35;23.00;99.90
8910;DHT22;4490;49.072;8.804;2023-07-28T12:05:31;23.00;99.90
8910;DHT22;4490;49.072;8.804;2023-07-28T12:07:58;22.90;99.90
8910;DHT22;4490;49.072;8.804;2023-07-28T12:10:24;22.90;99.90
8910;DHT22;4490;49.072;8.804;2023-07-28T12:12:50;22.80;99.90
8910;DHT22;4490;49.072;8.804;2023-07-28T12:15:27;22.80;99.90
8910;DHT22;4490;49.072;8.804;2023-07-28T12:20:40;22.70;99.90
8910;DHT22;4490;49.072;8.804;2023-07-28T12:23:07;22.60;99.90
8910;DHT22;4490;49.072;8.804;2023-07-28T12:25:33;22.50;99.90
8910;DHT22;4490;49.072;8.804;2023-07-28T12:27:59;22.40;99.90
8910;DHT22;4490;49.072;8.804;2023-07-28T12:30:24;22.30;99.90
8910;DHT22;4490;49.072;8.804;2023-07-28T12:32:50;22.20;99.90
8910;DHT22;4490;49.072;8.804;2023-07-28T12:35:16;22.00;99.90
8910;DHT22;4490;49.072;8.804;2023-07-28T12:37:41;21.90;99.90
8910;DHT22;4490;49.072;8.804;2023-07-28T12:40:08;21.80;99.90
8910;DHT22;4490;49.072;8.804;2023-07-28T12:42:34;21.80;99.90
8910;DHT22;4490;49.072;8.804;2023-07-28T12:44:59;21.80;99.90
8910;DHT22;4490;49.072;8.804;2023-07-28T12:47:25;21.80;99.90
8910;DHT22;4490;49.072;8.804;2023-07-28T12:49:51;21.80;99.90
8910;DHT22;4490;49.072;8.804;2023-07-28T12:52:17;21.80;99.90
8910;DHT22;4490;49.072;8.804;2023-07-28T12:54:42;21.80;99.90
8910;DHT22;4490;49.072;8.804;2023-07-28T12:57:08;21.80;99.90
8910;DHT22;4490;49.072;8.804;2023-07-28T12:59:38;21.90;99.90
8910;DHT22;4490;49.072;8.804;2023-07-28T13:02:04;21.90;99.90
8910;DHT22;4490;49.072;8.804;2023-07-28T13:04:30;21.90;99.90
8910;DHT22;4490;49.072;8.804;2023-07-28T13:06:55;21.80;99.90
8910;DHT22;4490;49.072;8.804;2023-07-28T13:09:21;21.80;99.90
8910;DHT22;4490;49.072;8.804;2023-07-28T13:11:46;21.80;99.90
8910;DHT22;4490;49.072;8.804;2023-07-28T13:14:12;21.80;99.90
8910;DHT22;4490;49.072;8.804;2023-07-28T13:16:38;21.80;99.90
8910;DHT22;4490;49.072;8.804;2023-07-28T13:19:04;21.80;99.90
8910;DHT22;4490;49.072;8.804;2023-07-28T13:21:31;21.80;99.90
8910;DHT22;4490;49.072;8.804;2023-07-28T13:23:56;21.80;99.90
8910;DHT22;4490;49.072;8.804;2023-07-28T13:26:22;21.80;99.90
8910;DHT22;4490;49.072;8.804;2023-07-28T13:28:48;21.80;99.90
8910;DHT22;4490;49.072;8.804;2023-07-28T13:31:15;21.70;99.90
8910;DHT22;4490;49.072;8.804;2023-07-28T13:33:41;21.70;99.90
8910;DHT22;4490;49.072;8.804;2023-07-28T13:36:07;21.70;99.90
8910;DHT22;4490;49.072;8.804;2023-07-28T13:38:33;21.70;99.90
8910;DHT22;4490;49.072;8.804;2023-07-28T13:40:59;21.70;99.90
8910;DHT22;4490;49.072;8.804;2023-07-28T13:43:25;21.70;99.90
8910;DHT22;4490;49.072;8.804;2023-07-28T13:45:51;21.70;99.90
8910;DHT22;4490;49.072;8.804;2023-07-28T13:48:16;21.70;99.90
8910;DHT22;4490;49.072;8.804;2023-07-28T13:50:42;21.70;99.90
8910;DHT22;4490;49.072;8.804;2023-07-28T13:53:08;21.70;99.90
8910;DHT22;4490;49.072;8.804;2023-07-28T13:55:34;21.70;99.90
8910;DHT22;4490;49.072;8.804;2023-07-28T13:57:59;21.70;99.90
8910;DHT22;4490;49.072;8.804;2023-07-28T14:00:25;21.70;99.90
8910;DHT22;4490;49.072;8.804;2023-07-28T14:02:50;21.70;99.90
8910;DHT22;4490;49.072;8.804;2023-07-28T14:05:16;21.60;99.90
8910;DHT22;4490;49.072;8.804;2023-07-28T14:07:42;21.60;99.90
8910;DHT22;4490;49.072;8.804;2023-07-28T14:10:08;21.60;99.90
8910;DHT22;4490;49.072;8.804;2023-07-28T14:12:34;21.60;99.90
8910;DHT22;4490;49.072;8.804;2023-07-28T14:14:59;21.60;99.90
8910;DHT22;4490;49.072;8.804;2023-07-28T14:17:25;21.60;99.90
8910;DHT22;4490;49.072;8.804;2023-07-28T14:19:50;21.60;99.90
8910;DHT22;4490;49.072;8.804;2023-07-28T14:22:17;21.60;99.90
8910;DHT22;4490;49.072;8.804;2023-07-28T14:24:42;21.60;99.90
8910;DHT22;4490;49.072;8.804;2023-07-28T14:27:08;21.60;99.90
8910;DHT22;4490;49.072;8.804;2023-07-28T14:29:34;21.60;99.90
8910;DHT22;4490;49.072;8.804;2023-07-28T14:31:59;21.60;99.90
8910;DHT22;4490;49.072;8.804;2023-07-28T14:34:25;21.60;99.90
8910;DHT22;4490;49.072;8.804;2023-07-28T14:36:50;21.60;99.90
8910;DHT22;4490;49.072;8.804;2023-07-28T14:39:16;21.50;99.90
8910;DHT22;4490;49.072;8.804;2023-07-28T14:41:42;21.50;99.90
8910;DHT22;4490;49.072;8.804;2023-07-28T14:44:08;21.40;99.90
8910;DHT22;4490;49.072;8.804;2023-07-28T14:46:34;21.40;99.90
8910;DHT22;4490;49.072;8.804;2023-07-28T14:48:59;21.40;99.90
8910;DHT22;4490;49.072;8.804;2023-07-28T14:51:25;21.30;99.90
8910;DHT22;4490;49.072;8.804;2023-07-28T14:53:50;21.40;99.90
8910;DHT22;4490;49.072;8.804;2023-07-28T14:56:17;21.40;99.90
8910;DHT22;4490;49.072;8.804;2023-07-28T14:58:43;21.40;99.90
8910;DHT22;4490;49.072;8.804;2023-07-28T15:01:12;21.40;99.90
8910;DHT22;4490;49.072;8.804;2023-07-28T15:03:37;21.30;99.90
8910;DHT22;4490;49.072;8.804;2023-07-28T15:06:03;21.30;99.90
8910;DHT22;4490;49.072;8.804;2023-07-28T15:08:30;21.30;99.90
8910;DHT22;4490;49.072;8.804;2023-07-28T15:10:57;21.30;99.90
8910;DHT22;4490;49.072;8.804;2023-07-28T15:13:22;21.30;99.90
8910;DHT22;4490;49.072;8.804;2023-07-28T15:15:49;21.30;99.90
8910;DHT22;4490;49.072;8.804;2023-07-28T15:18:15;21.30;99.90
8910;DHT22;4490;49.072;8.804;2023-07-28T15:20:42;21.30;99.90
8910;DHT22;4490;49.072;8.804;2023-07-28T15:23:08;21.20;99.90
8910;DHT22;4490;49.072;8.804;2023-07-28T15:25:34;21.20;99.90
8910;DHT22;4490;49.072;8.804;2023-07-28T15:27:59;21.20;99.90
8910;DHT22;4490;49.072;8.804;2023-07-28T15:30:25;21.20;99.90
8910;DHT22;4490;49.072;8.804;2023-07-28T15:32:51;21.10;99.90
8910;DHT22;4490;49.072;8.804;2023-07-28T15:35:17;21.20;99.90
8910;DHT22;4490;49.072;8.804;2023-07-28T15:37:42;21.20;99.90
8910;DHT22;4490;49.072;8.804;2023-07-28T15:40:09;21.20;99.90
8910;DHT22;4490;49.072;8.804;2023-07-28T15:42:35;21.20;99.90
8910;DHT22;4490;49.072;8.804;2023-07-28T15:45:01;21.20;99.90
8910;DHT22;4490;49.072;8.804;2023-07-28T15:47:31;21.10;99.90
8910;DHT22;4490;49.072;8.804;2023-07-28T15:50:01;21.10;99.90
8910;DHT22;4490;49.072;8.804;2023-07-28T15:52:33;21.10;99.90
8910;DHT22;4490;49.072;8.804;2023-07-28T15:54:59;21.10;99.90
8910;DHT22;4490;49.072;8.804;2023-07-28T15:57:25;21.10;99.90
8910;DHT22;4490;49.072;8.804;2023-07-28T15:59:50;21.10;99.90
8910;DHT22;4490;49.072;8.804;2023-07-28T16:02:16;21.10;99.90
8910;DHT22;4490;49.072;8.804;2023-07-28T16:04:42;21.00;99.90
8910;DHT22;4490;49.072;8.804;2023-07-28T16:07:07;21.10;99.90
8910;DHT22;4490;49.072;8.804;2023-07-28T16:09:33;21.10;99.90